Hornsea, United Kingdom
Current Conditions -  °F | °C
As of 4:50 AM on Friday 28 Nov 2014 (Local Time) from EGXV Reporting Station
Haze Haze  
Wind Chill: 50°   Ceiling: 1900
Heat Index: 50°   Visibility: 2.4mi
Dew Point: 50°   Wind: 5mph
Humidity: 100%   Direction: 100°E
Pressure: 29.65"   Gusts: NA
Location:  53.91°N, 0.17°W
Report Text: EGXV 280450Z AUTO 10004KT 3900 BR BKN019/// SCT028/// 10/10 Q1004
Loading
Personal Weather Stations






























Interactive Weather Map New forecast layout! Learn more

10-Day Weather Forecast

Advertisements
Track Severe Weather on mobile